createdAt,value
2023-03-13T00:00:53.412Z,5.56
2023-03-13T00:01:53.439Z,5.53
2023-03-13T00:02:53.403Z,5.50
2023-03-13T00:03:53.364Z,5.52
2023-03-13T00:04:53.419Z,5.46
2023-03-13T00:05:53.356Z,5.40
2023-03-13T00:06:53.327Z,5.32
2023-03-13T00:07:53.350Z,5.30
2023-03-13T00:08:53.324Z,5.30
2023-03-13T00:09:53.308Z,5.30
2023-03-13T00:10:53.284Z,5.35
2023-03-13T00:11:53.279Z,5.40
2023-03-13T00:12:53.284Z,5.46
2023-03-13T00:13:53.248Z,5.43
2023-03-13T00:14:53.262Z,5.40
2023-03-13T00:15:53.235Z,5.37
2023-03-13T00:16:53.293Z,5.32
2023-03-13T00:17:53.242Z,5.30
2023-03-13T00:18:53.193Z,5.28
2023-03-13T00:19:53.197Z,5.30
2023-03-13T00:20:53.168Z,5.31
2023-03-13T00:21:53.162Z,5.34
2023-03-13T00:22:53.174Z,5.30
2023-03-13T00:23:53.136Z,5.27
2023-03-13T00:24:53.148Z,5.27
2023-03-13T00:25:53.110Z,5.31
2023-03-13T00:26:53.110Z,5.32
2023-03-13T00:27:53.127Z,5.31
2023-03-13T00:28:53.117Z,5.34
2023-03-13T00:29:53.088Z,5.34
2023-03-13T00:30:53.272Z,5.50
2023-03-13T00:31:53.164Z,5.57
2023-03-13T00:32:53.155Z,5.66
2023-03-13T00:33:53.029Z,5.66
2023-03-13T00:34:53.016Z,5.64
2023-03-13T00:35:53.046Z,5.60
2023-03-13T00:36:52.999Z,5.63
2023-03-13T00:37:53.017Z,5.64
2023-03-13T00:38:52.977Z,5.63
2023-03-13T00:39:52.960Z,5.59
2023-03-13T00:40:52.958Z,5.56
2023-03-13T00:41:52.951Z,5.59
2023-03-13T00:42:52.952Z,5.56
2023-03-13T00:43:52.928Z,5.55
2023-03-13T00:44:52.903Z,5.56
2023-03-13T00:45:52.984Z,5.57
2023-03-13T00:46:52.880Z,5.57
2023-03-13T00:47:52.896Z,5.59
2023-03-13T00:48:52.874Z,5.60
2023-03-13T00:49:52.851Z,5.60
2023-03-13T00:50:53.793Z,5.60
2023-03-13T00:51:52.831Z,5.73
2023-03-13T00:52:52.860Z,5.77
2023-03-13T00:53:52.805Z,5.75
2023-03-13T00:54:52.806Z,5.74
2023-03-13T00:55:52.795Z,5.73
2023-03-13T00:56:52.792Z,5.71
2023-03-13T00:57:52.798Z,5.71
2023-03-13T00:58:52.751Z,5.74
2023-03-13T00:59:52.769Z,5.70
2023-03-13T01:00:52.726Z,5.71
2023-03-13T01:01:52.745Z,5.73
2023-03-13T01:02:52.883Z,5.74
2023-03-13T01:03:52.705Z,5.78
2023-03-13T01:04:52.688Z,5.78
2023-03-13T01:05:52.678Z,5.75
2023-03-13T01:06:52.661Z,5.75
2023-03-13T01:07:52.677Z,5.78
2023-03-13T01:08:52.649Z,5.78
2023-03-13T01:09:52.644Z,5.77
2023-03-13T01:10:52.631Z,5.78
2023-03-13T01:11:52.608Z,5.81
2023-03-13T01:12:52.646Z,5.85
2023-03-13T01:13:52.587Z,5.86
2023-03-13T01:14:52.599Z,5.88
2023-03-13T01:15:52.617Z,5.91
2023-03-13T01:16:52.578Z,5.93
2023-03-13T01:17:52.546Z,5.89
2023-03-13T01:18:52.568Z,5.85
2023-03-13T01:19:52.525Z,5.82
2023-03-13T01:20:52.527Z,5.82
2023-03-13T01:21:52.502Z,5.83
2023-03-13T01:22:52.501Z,5.83
2023-03-13T01:23:52.526Z,5.81
2023-03-13T01:24:52.498Z,5.82
2023-03-13T01:25:52.470Z,5.82
2023-03-13T01:26:52.467Z,5.78
2023-03-13T01:27:52.447Z,5.81
2023-03-13T01:28:52.508Z,5.81
2023-03-13T01:29:52.408Z,5.78
2023-03-13T01:30:52.468Z,5.77
2023-03-13T01:31:52.426Z,5.77
2023-03-13T01:32:52.426Z,5.78
2023-03-13T01:33:52.392Z,5.83
2023-03-13T01:34:52.360Z,5.85
2023-03-13T01:35:52.380Z,5.85
2023-03-13T01:36:52.391Z,5.83
2023-03-13T01:37:52.335Z,5.78
2023-03-13T01:38:52.348Z,5.78
2023-03-13T01:39:52.314Z,5.77
2023-03-13T01:40:52.296Z,5.77
2023-03-13T01:41:52.297Z,5.78
2023-03-13T01:42:52.278Z,5.83
2023-03-13T01:43:52.288Z,5.91
2023-03-13T01:44:52.257Z,5.95
2023-03-13T01:45:52.237Z,5.92
2023-03-13T01:46:52.286Z,5.89
2023-03-13T01:47:52.223Z,5.85
2023-03-13T01:48:52.232Z,5.82
2023-03-13T01:49:52.204Z,5.82
2023-03-13T01:50:52.203Z,5.74
2023-03-13T01:51:52.181Z,5.70
2023-03-13T01:52:52.162Z,5.70
2023-03-13T01:53:52.184Z,5.70
2023-03-13T01:54:52.159Z,5.68
2023-03-13T01:55:52.128Z,5.70
2023-03-13T01:56:52.141Z,5.74
2023-03-13T01:57:52.143Z,5.77
2023-03-13T01:58:52.112Z,6.00
2023-03-13T01:59:52.087Z,6.13
2023-03-13T02:01:54.978Z,6.29
2023-03-13T02:02:55.962Z,6.35
2023-03-13T02:03:55.877Z,6.33
2023-03-13T02:04:55.841Z,6.25
2023-03-13T02:05:55.833Z,6.22
2023-03-13T02:06:55.810Z,6.19
2023-03-13T02:07:55.820Z,6.11
2023-03-13T02:08:55.873Z,6.06
2023-03-13T02:09:55.815Z,6.03
2023-03-13T02:10:55.773Z,6.00
2023-03-13T02:11:55.780Z,5.95
2023-03-13T02:12:55.750Z,5.95
2023-03-13T02:13:55.860Z,6.07
2023-03-13T02:14:55.896Z,6.13
2023-03-13T02:15:56.006Z,6.10
2023-03-13T02:16:55.868Z,6.04
2023-03-13T02:17:55.866Z,5.98
2023-03-13T02:18:55.944Z,5.95
2023-03-13T02:19:55.834Z,5.91
2023-03-13T02:20:55.665Z,5.91
2023-03-13T02:21:55.789Z,5.88
2023-03-13T02:22:55.841Z,5.92
2023-03-13T02:23:55.689Z,5.95
2023-03-13T02:24:55.737Z,5.96
2023-03-13T02:25:55.831Z,6.03
2023-03-13T02:26:55.803Z,6.06
2023-03-13T02:27:55.745Z,6.06
2023-03-13T02:28:55.854Z,6.06
2023-03-13T02:29:55.570Z,6.07
2023-03-13T02:30:55.704Z,6.07
2023-03-13T02:31:55.668Z,6.04
2023-03-13T02:32:55.794Z,6.03
2023-03-13T02:33:55.679Z,6.04
2023-03-13T02:34:55.630Z,6.14
2023-03-13T02:35:55.535Z,6.19
2023-03-13T02:36:55.503Z,6.21
2023-03-13T02:37:55.483Z,6.28
2023-03-13T02:38:55.501Z,6.28
2023-03-13T02:39:55.450Z,6.22
2023-03-13T02:40:55.445Z,6.19
2023-03-13T02:41:55.449Z,6.18
2023-03-13T02:42:55.425Z,6.19
2023-03-13T02:43:55.477Z,6.19
2023-03-13T02:44:55.427Z,6.18
2023-03-13T02:45:55.409Z,6.14
2023-03-13T02:46:55.496Z,6.16
2023-03-13T02:47:55.437Z,6.14
2023-03-13T02:48:55.401Z,6.13
2023-03-13T02:49:55.384Z,6.16
2023-03-13T02:50:55.336Z,6.13
2023-03-13T02:51:55.340Z,6.13
2023-03-13T02:52:55.342Z,6.09
2023-03-13T02:53:55.332Z,6.09
2023-03-13T02:54:55.292Z,6.16
2023-03-13T02:55:55.285Z,6.25
2023-03-13T02:56:55.307Z,6.25
2023-03-13T02:57:55.331Z,6.33
2023-03-13T02:58:55.321Z,6.32
2023-03-13T02:59:55.301Z,6.32
2023-03-13T03:00:55.341Z,6.30
2023-03-13T03:01:55.328Z,6.28
2023-03-13T03:02:55.250Z,6.35
2023-03-13T03:03:55.454Z,6.40
2023-03-13T03:04:55.186Z,6.36
2023-03-13T03:05:55.188Z,6.32
2023-03-13T03:06:55.226Z,6.28
2023-03-13T03:07:55.200Z,6.21
2023-03-13T03:08:55.196Z,6.16
2023-03-13T03:09:55.242Z,6.10
2023-03-13T03:10:55.178Z,6.04
2023-03-13T03:11:55.121Z,6.04
2023-03-13T03:12:55.135Z,6.06
2023-03-13T03:13:55.128Z,6.10
2023-03-13T03:14:55.079Z,6.11
2023-03-13T03:15:55.204Z,6.11
2023-03-13T03:16:55.103Z,6.13
2023-03-13T03:17:58.078Z,6.14
2023-03-13T03:18:55.070Z,6.21
2023-03-13T03:19:55.193Z,6.21
2023-03-13T03:20:55.022Z,6.22
2023-03-13T03:21:55.027Z,6.25
2023-03-13T03:22:55.022Z,6.28
2023-03-13T03:23:55.030Z,6.26
2023-03-13T03:24:54.984Z,6.28
2023-03-13T03:25:55.111Z,6.28
2023-03-13T03:26:54.960Z,6.26
2023-03-13T03:27:55.069Z,6.26
2023-03-13T03:28:54.967Z,6.22
2023-03-13T03:29:54.940Z,6.25
2023-03-13T03:30:54.945Z,6.29
2023-03-13T03:31:54.994Z,6.29
2023-03-13T03:32:55.016Z,6.30
2023-03-13T03:33:54.888Z,6.32
2023-03-13T03:34:54.864Z,6.28
2023-03-13T03:35:54.926Z,6.29
2023-03-13T03:36:54.984Z,6.26
2023-03-13T03:37:54.950Z,6.29
2023-03-13T03:38:54.965Z,6.28
2023-03-13T03:39:54.803Z,6.29
2023-03-13T03:40:54.805Z,6.32
2023-03-13T03:41:55.034Z,6.30
2023-03-13T03:42:54.783Z,6.29
2023-03-13T03:43:54.795Z,6.26
2023-03-13T03:44:54.760Z,6.29
2023-03-13T03:45:54.991Z,6.32
2023-03-13T03:46:55.011Z,6.33
2023-03-13T03:47:54.922Z,6.32
2023-03-13T03:48:54.899Z,6.30
2023-03-13T03:49:54.737Z,6.29
2023-03-13T03:50:54.699Z,6.29
2023-03-13T03:51:54.874Z,6.28
2023-03-13T03:52:54.863Z,6.26
2023-03-13T03:53:54.904Z,6.26
2023-03-13T03:54:54.811Z,6.30
2023-03-13T03:55:54.787Z,6.32
2023-03-13T03:56:54.651Z,6.33
2023-03-13T03:57:54.607Z,6.36
2023-03-13T03:58:54.650Z,6.38
2023-03-13T03:59:54.595Z,6.43
2023-03-13T04:00:54.576Z,6.43
2023-03-13T04:01:54.615Z,6.41
2023-03-13T04:02:54.685Z,6.46
2023-03-13T04:03:54.598Z,6.44
2023-03-13T04:04:54.560Z,6.44
2023-03-13T04:05:54.538Z,6.41
2023-03-13T04:06:54.536Z,6.38
2023-03-13T04:07:54.533Z,6.41
2023-03-13T04:08:54.509Z,6.47
2023-03-13T04:09:54.496Z,6.47
2023-03-13T04:10:54.488Z,6.47
2023-03-13T04:11:54.485Z,6.47
2023-03-13T04:12:54.468Z,6.47
2023-03-13T04:13:54.448Z,6.48
2023-03-13T04:14:54.443Z,6.53
2023-03-13T04:15:54.446Z,6.53
2023-03-13T04:16:54.493Z,6.53
2023-03-13T04:17:54.398Z,6.50
2023-03-13T04:18:54.387Z,6.46
2023-03-13T04:19:54.399Z,6.44
2023-03-13T04:20:54.550Z,6.47
2023-03-13T04:21:54.366Z,6.53
2023-03-13T04:22:54.417Z,6.59
2023-03-13T04:23:54.329Z,6.61
2023-03-13T04:24:54.347Z,6.59
2023-03-13T04:25:54.313Z,6.58
2023-03-13T04:26:54.304Z,6.53
2023-03-13T04:27:54.288Z,6.51
2023-03-13T04:28:54.268Z,6.47
2023-03-13T04:29:54.330Z,6.43
2023-03-13T04:30:54.328Z,6.43
2023-03-13T04:31:54.242Z,6.47
2023-03-13T04:32:54.376Z,6.54
2023-03-13T04:33:54.239Z,6.58
2023-03-13T04:34:54.268Z,6.65
2023-03-13T04:35:54.263Z,6.66
2023-03-13T04:36:54.214Z,6.68
2023-03-13T04:37:54.197Z,6.66
2023-03-13T04:38:54.165Z,6.72
2023-03-13T04:39:54.170Z,6.72
2023-03-13T04:40:54.137Z,6.69
2023-03-13T04:41:54.126Z,6.63
2023-03-13T04:42:54.186Z,6.62
2023-03-13T04:43:54.139Z,6.62
2023-03-13T04:44:54.126Z,6.62
2023-03-13T04:45:54.147Z,6.63
2023-03-13T04:46:54.078Z,6.61
2023-03-13T04:47:54.069Z,6.58
2023-03-13T04:48:54.050Z,6.56
2023-03-13T04:49:54.085Z,6.59
2023-03-13T04:50:54.041Z,6.65
2023-03-13T04:51:54.045Z,6.71
2023-03-13T04:52:54.047Z,6.76
2023-03-13T04:53:54.013Z,6.79
2023-03-13T04:54:54.026Z,6.79
2023-03-13T04:55:53.988Z,6.73
2023-03-13T04:56:53.961Z,6.71
2023-03-13T04:57:53.977Z,6.73
2023-03-13T04:58:53.959Z,6.79
2023-03-13T04:59:53.964Z,6.83
2023-03-13T05:00:53.934Z,6.86
2023-03-13T05:01:54.023Z,6.89
2023-03-13T05:02:53.907Z,6.90
2023-03-13T05:03:53.891Z,6.90
2023-03-13T05:04:53.957Z,6.90
2023-03-13T05:05:53.869Z,6.86
2023-03-13T05:06:53.870Z,6.87
2023-03-13T05:07:53.867Z,6.89
2023-03-13T05:08:53.883Z,6.90
2023-03-13T05:09:53.872Z,6.89
2023-03-13T05:10:53.820Z,6.90
2023-03-13T05:11:53.823Z,6.95
2023-03-13T05:12:53.813Z,6.98
2023-03-13T05:13:53.791Z,6.97
2023-03-13T05:14:53.825Z,6.94
2023-03-13T05:15:53.847Z,6.95
2023-03-13T05:16:53.763Z,6.99
2023-03-13T05:17:54.769Z,6.99
2023-03-13T05:18:53.742Z,7.05
2023-03-13T05:19:53.749Z,7.07
2023-03-13T05:20:53.718Z,7.13
2023-03-13T05:21:53.721Z,7.17
2023-03-13T05:22:53.690Z,7.19
2023-03-13T05:23:53.714Z,7.16
2023-03-13T05:24:53.710Z,7.15
2023-03-13T05:25:53.661Z,7.16
2023-03-13T05:26:53.646Z,7.16
2023-03-13T05:27:53.633Z,7.16
2023-03-13T05:28:53.622Z,7.17
2023-03-13T05:29:53.635Z,7.19
2023-03-13T05:30:53.636Z,7.23
2023-03-13T05:31:53.591Z,7.27
2023-03-13T05:32:53.671Z,7.27
2023-03-13T05:33:53.595Z,7.24
2023-03-13T05:34:53.599Z,7.20
2023-03-13T05:35:53.650Z,7.13
2023-03-13T05:36:53.550Z,7.07
2023-03-13T05:37:53.557Z,7.04
2023-03-13T05:38:53.531Z,7.07
2023-03-13T05:39:53.535Z,7.23
2023-03-13T05:40:53.492Z,7.35
2023-03-13T05:41:53.509Z,7.45
2023-03-13T05:42:53.466Z,7.45
2023-03-13T05:43:53.504Z,7.44
2023-03-13T05:44:53.493Z,7.40
2023-03-13T05:45:53.451Z,7.38
2023-03-13T05:46:53.514Z,7.32
2023-03-13T05:47:53.412Z,7.27
2023-03-13T05:48:53.435Z,7.26
2023-03-13T05:49:53.443Z,7.19
2023-03-13T05:50:53.401Z,7.19
2023-03-13T05:51:53.371Z,7.15
2023-03-13T05:52:53.388Z,7.12
2023-03-13T05:53:53.377Z,7.16
2023-03-13T05:54:53.417Z,7.26
2023-03-13T05:55:53.376Z,7.44
2023-03-13T05:56:53.321Z,7.58
2023-03-13T05:57:53.349Z,7.59
2023-03-13T05:58:53.310Z,7.56
2023-03-13T05:59:53.329Z,7.55
2023-03-13T06:00:53.318Z,7.50
2023-03-13T06:01:53.290Z,7.53
2023-03-13T06:02:53.256Z,7.56
2023-03-13T06:03:53.413Z,7.53
2023-03-13T06:04:53.787Z,7.56
2023-03-13T06:05:53.223Z,7.58
2023-03-13T06:06:53.266Z,7.55
2023-03-13T06:07:53.229Z,7.49
2023-03-13T06:08:53.203Z,7.49
2023-03-13T06:09:53.206Z,7.75
2023-03-13T06:10:53.186Z,7.81
2023-03-13T06:11:53.152Z,7.79
2023-03-13T06:12:53.142Z,7.75
2023-03-13T06:13:53.150Z,7.74
2023-03-13T06:14:53.160Z,7.69
2023-03-13T06:15:53.240Z,7.92
2023-03-13T06:16:53.107Z,7.96
2023-03-13T06:17:53.089Z,7.97
2023-03-13T06:18:53.092Z,7.97
2023-03-13T06:19:53.104Z,7.93
2023-03-13T06:20:53.068Z,7.84
2023-03-13T06:21:53.045Z,7.81
2023-03-13T06:22:53.026Z,7.79
2023-03-13T06:23:53.042Z,7.79
2023-03-13T06:24:53.615Z,7.81
2023-03-13T06:25:53.021Z,7.77
2023-03-13T06:26:52.988Z,7.75
2023-03-13T06:27:52.999Z,7.66
2023-03-13T06:28:52.976Z,7.81
2023-03-13T06:29:53.022Z,7.89
2023-03-13T06:30:53.001Z,7.94
2023-03-13T06:31:53.130Z,7.89
2023-03-13T06:32:53.236Z,7.87
2023-03-13T06:33:52.931Z,7.79
2023-03-13T06:34:52.977Z,7.74
2023-03-13T06:35:56.568Z,7.77
2023-03-13T06:36:52.952Z,7.82
2023-03-13T06:37:52.886Z,7.85
2023-03-13T06:38:52.918Z,7.85
2023-03-13T06:39:52.884Z,7.82
2023-03-13T06:40:52.863Z,7.79
2023-03-13T06:41:52.831Z,7.78
2023-03-13T06:42:52.817Z,7.77
2023-03-13T06:43:52.802Z,7.87
2023-03-13T06:44:52.812Z,7.96
2023-03-13T06:45:52.806Z,7.94
2023-03-13T06:46:52.907Z,7.90
2023-03-13T06:47:52.774Z,7.94
2023-03-13T06:48:52.794Z,7.94
2023-03-13T06:49:52.764Z,8.02
2023-03-13T06:50:52.770Z,8.08
2023-03-13T06:51:52.747Z,8.12
2023-03-13T06:52:52.701Z,8.15
2023-03-13T06:53:52.737Z,8.15
2023-03-13T06:54:52.713Z,8.11
2023-03-13T06:55:52.665Z,8.04
2023-03-13T06:56:52.701Z,8.07
2023-03-13T06:57:52.677Z,8.04
2023-03-13T06:58:52.646Z,8.08
2023-03-13T06:59:52.654Z,8.14
2023-03-13T07:00:52.653Z,8.20
2023-03-13T07:01:52.615Z,8.18
2023-03-13T07:02:52.624Z,8.29
2023-03-13T07:03:52.641Z,8.28
2023-03-13T07:04:52.654Z,8.25
2023-03-13T07:05:52.585Z,8.22
2023-03-13T07:06:52.557Z,8.21
2023-03-13T07:07:52.548Z,8.20
2023-03-13T07:08:52.559Z,8.28
2023-03-13T07:09:52.589Z,8.33
2023-03-13T07:10:52.530Z,8.63
2023-03-13T07:11:52.551Z,8.73
2023-03-13T07:12:52.488Z,8.78
2023-03-13T07:13:52.565Z,8.73
2023-03-13T07:14:52.525Z,8.63
2023-03-13T07:15:52.463Z,8.57
2023-03-13T07:16:52.646Z,8.50
2023-03-13T07:17:52.445Z,8.53
2023-03-13T07:18:52.447Z,8.54
2023-03-13T07:19:52.458Z,8.54
2023-03-13T07:20:52.408Z,8.55
2023-03-13T07:21:52.409Z,8.58
2023-03-13T07:22:52.406Z,8.65
2023-03-13T07:23:52.393Z,8.63
2023-03-13T07:24:52.429Z,8.62
2023-03-13T07:25:52.368Z,8.66
2023-03-13T07:27:04.883Z,8.83
2023-03-13T07:27:52.374Z,8.93
2023-03-13T07:28:52.379Z,8.93
2023-03-13T07:29:52.353Z,8.93
2023-03-13T07:30:52.356Z,8.84
2023-03-13T07:31:52.386Z,8.73
2023-03-13T07:32:52.356Z,8.71
2023-03-13T07:33:52.324Z,8.69
2023-03-13T07:34:52.277Z,8.78
2023-03-13T07:35:52.272Z,8.79
2023-03-13T07:36:52.240Z,8.83
2023-03-13T07:37:52.253Z,8.84
2023-03-13T07:38:52.232Z,8.78
2023-03-13T07:39:52.208Z,8.76
2023-03-13T07:40:52.251Z,8.76
2023-03-13T07:41:52.176Z,8.76
2023-03-13T07:42:52.223Z,8.91
2023-03-13T07:43:52.187Z,9.20
2023-03-13T07:44:52.178Z,9.27
2023-03-13T07:45:52.223Z,9.61
2023-03-13T07:46:52.152Z,9.61
2023-03-13T07:47:52.126Z,9.48
2023-03-13T07:48:52.100Z,9.46
2023-03-13T07:49:52.166Z,9.34
2023-03-13T07:50:52.106Z,9.48
2023-03-13T07:51:52.092Z,9.64
2023-03-13T07:52:52.136Z,9.68
2023-03-13T07:53:52.074Z,9.78
2023-03-13T07:54:52.073Z,9.71
2023-03-13T07:55:52.070Z,9.63
2023-03-13T07:56:52.040Z,9.56
2023-03-13T07:57:51.997Z,9.56
2023-03-13T07:58:52.015Z,9.57
2023-03-13T07:59:51.974Z,9.53
2023-03-13T08:00:51.984Z,9.53
2023-03-13T08:01:58.533Z,9.56
2023-03-13T08:02:51.943Z,9.57
2023-03-13T08:03:52.080Z,9.56
2023-03-13T08:04:51.907Z,9.63
2023-03-13T08:05:51.924Z,9.73
2023-03-13T08:06:51.896Z,9.93
2023-03-13T08:07:51.901Z,10.03
2023-03-13T08:08:51.873Z,10.01
2023-03-13T08:09:51.864Z,9.91
2023-03-13T08:10:51.865Z,9.88
2023-03-13T08:11:51.854Z,9.83
2023-03-13T08:12:51.844Z,9.82
2023-03-13T08:13:51.818Z,9.83
2023-03-13T08:14:51.823Z,9.85
2023-03-13T08:15:51.804Z,9.83
2023-03-13T08:16:51.840Z,9.82
2023-03-13T08:17:51.759Z,10.01
2023-03-13T08:18:51.751Z,10.03
2023-03-13T08:19:51.757Z,10.04
2023-03-13T08:20:51.766Z,10.03
2023-03-13T08:21:51.730Z,9.99
2023-03-13T08:22:51.719Z,9.94
2023-03-13T08:23:51.713Z,9.94
2023-03-13T08:24:51.690Z,9.97
2023-03-13T08:25:51.706Z,10.01
2023-03-13T08:26:51.664Z,10.03
2023-03-13T08:27:51.660Z,10.10
2023-03-13T08:28:51.659Z,10.15
2023-03-13T08:29:51.650Z,10.17
2023-03-13T08:30:51.652Z,10.07
2023-03-13T08:31:51.637Z,9.99
2023-03-13T08:32:51.666Z,10.09
2023-03-13T08:33:51.600Z,10.26
2023-03-13T08:34:51.598Z,10.37
2023-03-13T08:35:51.638Z,10.43
2023-03-13T08:36:51.559Z,10.39
2023-03-13T08:37:51.555Z,10.37
2023-03-13T08:38:51.536Z,10.36
2023-03-13T08:39:51.546Z,10.33
2023-03-13T08:40:51.556Z,10.40
2023-03-13T08:41:51.504Z,10.40
2023-03-13T08:42:51.525Z,10.40
2023-03-13T08:43:51.486Z,10.39
2023-03-13T08:44:51.504Z,10.62
2023-03-13T08:45:51.553Z,10.66
2023-03-13T08:46:51.511Z,10.58
2023-03-13T08:47:51.507Z,10.43
2023-03-13T08:48:51.518Z,10.46
2023-03-13T08:49:51.479Z,10.71
2023-03-13T08:50:51.671Z,10.84
2023-03-13T08:51:51.448Z,10.84
2023-03-13T08:52:51.444Z,10.88
2023-03-13T08:53:51.389Z,10.84
2023-03-13T08:54:51.374Z,10.88
2023-03-13T08:55:51.389Z,10.94
2023-03-13T08:56:51.466Z,10.94
2023-03-13T08:57:51.349Z,10.84
2023-03-13T08:58:51.376Z,10.84
2023-03-13T08:59:51.330Z,10.89
2023-03-13T09:00:51.342Z,10.94
2023-03-13T09:01:51.337Z,11.01
2023-03-13T09:02:51.329Z,11.16
2023-03-13T09:03:51.316Z,11.13
2023-03-13T09:04:51.306Z,11.03
2023-03-13T09:05:56.423Z,11.03
2023-03-13T09:06:51.284Z,11.01
2023-03-13T09:07:51.297Z,11.01
2023-03-13T09:08:51.254Z,11.02
2023-03-13T09:09:51.234Z,11.07
2023-03-13T09:10:51.247Z,11.09
2023-03-13T09:11:51.200Z,11.13
2023-03-13T09:12:51.249Z,11.14
2023-03-13T09:13:51.180Z,11.27
2023-03-13T09:14:51.287Z,11.32
2023-03-13T09:15:51.218Z,11.32
2023-03-13T09:16:51.267Z,11.28
2023-03-13T09:17:51.187Z,11.17
2023-03-13T09:18:51.169Z,11.20
2023-03-13T09:20:00.022Z,11.24
2023-03-13T09:20:51.177Z,11.24
2023-03-13T09:21:51.076Z,11.24
2023-03-13T09:22:51.147Z,11.31
2023-03-13T09:23:51.065Z,11.34
2023-03-13T09:24:51.050Z,11.38
2023-03-13T09:25:51.058Z,11.36
2023-03-13T09:27:00.756Z,11.35
2023-03-13T09:27:51.150Z,11.36
2023-03-13T09:28:51.050Z,11.43
2023-03-13T09:29:51.008Z,11.44
2023-03-13T09:30:51.034Z,11.43
2023-03-13T09:31:50.976Z,11.56
2023-03-13T09:32:51.048Z,11.54
2023-03-13T09:33:50.955Z,11.49
2023-03-13T09:34:50.947Z,11.43
2023-03-13T09:35:51.190Z,11.38
2023-03-13T09:36:51.080Z,11.34
2023-03-13T09:37:50.944Z,11.36
2023-03-13T09:38:51.164Z,11.49
2023-03-13T09:39:50.890Z,11.56
2023-03-13T09:41:05.263Z,11.59
2023-03-13T09:41:50.871Z,11.64
2023-03-13T09:42:50.849Z,11.62
2023-03-13T09:43:50.988Z,11.65
2023-03-13T09:44:51.047Z,11.71
2023-03-13T09:45:50.848Z,11.72
2023-03-13T09:46:51.078Z,11.68
2023-03-13T09:47:50.933Z,11.54
2023-03-13T09:48:50.976Z,11.57
2023-03-13T09:49:50.962Z,11.65
2023-03-13T09:50:51.050Z,11.72
2023-03-13T09:51:50.770Z,11.78
2023-03-13T09:52:50.812Z,11.80
2023-03-13T09:53:50.933Z,11.89
2023-03-13T09:54:50.739Z,11.96
2023-03-13T09:55:50.913Z,11.99
2023-03-13T09:56:50.893Z,12.02
2023-03-13T09:57:50.794Z,11.99
2023-03-13T09:58:50.811Z,11.99
2023-03-13T09:59:50.812Z,12.04
2023-03-13T10:00:50.917Z,12.09
2023-03-13T10:01:50.905Z,12.11
2023-03-13T10:02:50.621Z,12.13
2023-03-13T10:03:50.630Z,12.12
2023-03-13T10:04:50.703Z,12.08
2023-03-13T10:05:50.638Z,12.06
2023-03-13T10:06:50.564Z,12.04
2023-03-13T10:07:50.840Z,12.01
2023-03-13T10:08:50.555Z,12.01
2023-03-13T10:09:50.564Z,12.06
2023-03-13T10:10:50.570Z,12.05
2023-03-13T10:11:50.516Z,12.05
2023-03-13T10:12:50.535Z,12.13
2023-03-13T10:13:50.502Z,12.15
2023-03-13T10:14:50.486Z,12.19
2023-03-13T10:15:50.583Z,12.16
2023-03-13T10:16:50.492Z,12.27
2023-03-13T10:17:50.469Z,12.24
2023-03-13T10:18:50.445Z,12.16
2023-03-13T10:19:50.442Z,12.12
2023-03-13T10:20:50.439Z,12.21
2023-03-13T10:21:50.412Z,12.26
2023-03-13T10:22:50.431Z,12.41
2023-03-13T10:23:50.386Z,12.34
2023-03-13T10:24:50.388Z,12.33
2023-03-13T10:25:50.385Z,12.38
2023-03-13T10:26:50.364Z,12.42
2023-03-13T10:27:51.110Z,12.44
2023-03-13T10:28:50.343Z,12.56
2023-03-13T10:29:50.332Z,12.56
2023-03-13T10:30:50.431Z,12.63
2023-03-13T10:31:50.395Z,12.71
2023-03-13T10:32:50.325Z,12.84
2023-03-13T10:33:50.281Z,12.88
2023-03-13T10:34:50.334Z,12.93
2023-03-13T10:35:50.380Z,12.99
2023-03-13T10:36:50.267Z,13.02
2023-03-13T10:37:50.238Z,13.02
2023-03-13T10:38:50.235Z,13.00
2023-03-13T10:39:50.221Z,13.02
2023-03-13T10:40:50.230Z,13.03
2023-03-13T10:41:50.204Z,13.04
2023-03-13T10:42:50.179Z,13.09
2023-03-13T10:43:50.172Z,13.07
2023-03-13T10:44:50.177Z,13.11
2023-03-13T10:45:50.170Z,13.02
2023-03-13T10:46:50.181Z,13.04
2023-03-13T10:47:50.144Z,13.04
2023-03-13T10:48:50.118Z,13.03
2023-03-13T10:49:50.290Z,13.06
2023-03-13T10:50:50.142Z,13.06
2023-03-13T10:51:50.104Z,13.07
2023-03-13T10:52:50.092Z,13.09
2023-03-13T10:53:50.067Z,13.15
2023-03-13T10:54:50.054Z,13.12
2023-03-13T10:55:50.076Z,13.09
2023-03-13T10:56:50.031Z,13.04
2023-03-13T10:57:50.032Z,13.00
2023-03-13T10:58:50.095Z,12.96
2023-03-13T10:59:50.040Z,12.97
2023-03-13T11:00:50.010Z,12.93
2023-03-13T11:01:49.999Z,12.92
2023-03-13T11:02:50.311Z,12.88
2023-03-13T11:03:50.083Z,12.82
2023-03-13T11:04:50.142Z,12.81
2023-03-13T11:05:50.158Z,12.77
2023-03-13T11:06:50.120Z,12.74
2023-03-13T11:07:49.915Z,12.75
2023-03-13T11:08:49.944Z,12.74
2023-03-13T11:09:50.083Z,12.84
2023-03-13T11:10:50.109Z,12.92
2023-03-13T11:11:49.877Z,13.03
2023-03-13T11:12:49.856Z,13.12
2023-03-13T11:13:49.845Z,13.12
2023-03-13T11:14:50.037Z,13.18
2023-03-13T11:15:49.936Z,13.21
2023-03-13T11:16:49.818Z,13.17
2023-03-13T11:17:49.991Z,13.20
2023-03-13T11:18:50.004Z,13.21
2023-03-13T11:19:51.068Z,13.24
2023-03-13T11:20:49.920Z,13.27
2023-03-13T11:21:49.900Z,13.29
2023-03-13T11:22:50.063Z,13.32
2023-03-13T11:23:49.732Z,13.44
2023-03-13T11:24:49.911Z,13.44
2023-03-13T11:25:49.803Z,13.44
2023-03-13T11:27:01.960Z,13.49
2023-03-13T11:27:49.697Z,13.54
2023-03-13T11:28:49.731Z,13.56
2023-03-13T11:29:49.724Z,13.56
2023-03-13T11:30:49.691Z,13.55
2023-03-13T11:31:49.705Z,13.51
2023-03-13T11:32:49.702Z,13.47
2023-03-13T11:33:49.631Z,13.38
2023-03-13T11:34:49.613Z,13.33
2023-03-13T11:35:49.759Z,13.36
2023-03-13T11:36:49.610Z,13.33
2023-03-13T11:37:49.578Z,13.29
2023-03-13T11:38:49.562Z,13.29
2023-03-13T11:39:49.571Z,13.32
2023-03-13T11:40:49.633Z,13.32
2023-03-13T11:41:49.583Z,13.36
2023-03-13T11:42:49.572Z,13.44
2023-03-13T11:43:49.520Z,13.46
2023-03-13T11:44:49.598Z,13.55
2023-03-13T11:45:49.619Z,13.71
2023-03-13T11:46:49.518Z,13.81
2023-03-13T11:47:49.479Z,13.98
2023-03-13T11:48:49.503Z,14.02
2023-03-13T11:49:49.463Z,14.14
2023-03-13T11:50:49.447Z,14.24
2023-03-13T11:51:49.445Z,14.28
2023-03-13T11:52:49.439Z,14.27
2023-03-13T11:53:49.421Z,14.31
2023-03-13T11:54:49.455Z,14.42
2023-03-13T11:55:49.411Z,14.47
2023-03-13T11:56:49.376Z,14.54
2023-03-13T11:57:49.363Z,14.62
2023-03-13T11:58:49.372Z,14.72
2023-03-13T11:59:49.345Z,14.78
2023-03-13T12:00:49.473Z,14.83
2023-03-13T12:01:49.355Z,14.83
2023-03-13T12:02:49.347Z,14.86
2023-03-13T12:03:49.300Z,14.84
2023-03-13T12:04:49.317Z,14.84
2023-03-13T12:05:49.322Z,14.86
2023-03-13T12:06:49.270Z,14.90
2023-03-13T12:07:49.261Z,14.98
2023-03-13T12:08:49.249Z,15.02
2023-03-13T12:09:49.236Z,15.03
2023-03-13T12:10:49.242Z,15.01
2023-03-13T12:11:49.218Z,14.95
2023-03-13T12:12:49.256Z,14.95
2023-03-13T12:13:49.184Z,14.90
2023-03-13T12:14:49.179Z,14.84
2023-03-13T12:15:49.182Z,14.68
2023-03-13T12:16:49.277Z,14.62
2023-03-13T12:17:49.218Z,14.54
2023-03-13T12:18:49.136Z,14.47
2023-03-13T12:19:49.125Z,14.46
2023-03-13T12:20:49.127Z,14.44
2023-03-13T12:21:49.228Z,14.37
2023-03-13T12:22:49.087Z,14.35
2023-03-13T12:23:49.160Z,14.35
2023-03-13T12:24:49.075Z,14.34
2023-03-13T12:25:49.184Z,14.34
2023-03-13T12:26:49.059Z,14.34
2023-03-13T12:27:49.066Z,14.46
2023-03-13T12:28:49.054Z,14.60
2023-03-13T12:29:49.045Z,14.67
2023-03-13T12:30:49.080Z,14.71
2023-03-13T12:31:49.066Z,14.83
2023-03-13T12:32:49.074Z,14.91
2023-03-13T12:33:48.978Z,15.01
2023-03-13T12:34:48.995Z,15.15
2023-03-13T12:35:48.981Z,15.28
2023-03-13T12:36:48.959Z,15.31
2023-03-13T12:37:48.960Z,15.31
2023-03-13T12:38:48.938Z,15.38
2023-03-13T12:39:48.924Z,15.38
2023-03-13T12:40:48.928Z,15.41
2023-03-13T12:41:48.958Z,15.43
2023-03-13T12:42:48.892Z,15.49
2023-03-13T12:44:00.774Z,15.48
2023-03-13T12:44:48.872Z,15.41
2023-03-13T12:45:49.012Z,15.42
2023-03-13T12:46:48.930Z,15.52
2023-03-13T12:47:48.822Z,15.67
2023-03-13T12:48:48.809Z,15.72
2023-03-13T12:49:48.841Z,15.81
2023-03-13T12:50:48.794Z,15.92
2023-03-13T12:51:48.827Z,15.96
2023-03-13T12:52:48.826Z,15.97
2023-03-13T12:53:48.817Z,15.93
2023-03-13T12:54:48.762Z,15.96
2023-03-13T12:55:48.742Z,16.03
2023-03-13T12:56:48.748Z,16.07
2023-03-13T12:57:48.842Z,16.09
2023-03-13T12:58:48.741Z,16.07
2023-03-13T12:59:48.709Z,15.99
2023-03-13T13:00:48.679Z,15.93
2023-03-13T13:01:48.738Z,15.89
2023-03-13T13:02:48.664Z,15.89
2023-03-13T13:03:48.775Z,15.86
2023-03-13T13:04:48.701Z,15.88
2023-03-13T13:05:50.576Z,15.92
2023-03-13T13:06:48.644Z,15.97
2023-03-13T13:07:48.608Z,16.00
2023-03-13T13:08:48.644Z,16.00
2023-03-13T13:09:48.595Z,15.99